VJC611 VVTS-VVDL
Flight info
| Callsign | VJC611 |
|---|---|
| Flight time | 0h 28m |
| Altitude | 19000 |
| Route | BIXEX |
| Aircraft | A320/M-L/L |
Departure
| Time | 2026-04-17 06:41 |
|---|---|
| Airport | Tan Son Nhat International Airport (VVTS) |
Arrival
| Time | 2026-04-17 07:10 |
|---|---|
| Airport | Lien Khuong Airport (VVDL) |
| Time | Latitude | Longitude | Altitude | Speed | Heading |
|---|---|---|---|---|---|
| 2026-04-17 06:26 | 10.81508 | 106.65637 | 42 ft | 0 kts | 159° |
| 2026-04-17 06:33 | 10.81506 | 106.65638 | 42 ft | 0 kts | 159° |
| 2026-04-17 06:34 | 10.81497 | 106.65642 | 42 ft | 1 kts | 159° |
| 2026-04-17 06:34 | 10.81480 | 106.65648 | 42 ft | 3 kts | 159° |
| 2026-04-17 06:34 | 10.81460 | 106.65660 | 42 ft | 3 kts | 130° |
| 2026-04-17 06:34 | 10.81457 | 106.65689 | 42 ft | 4 kts | 78° |
| 2026-04-17 06:35 | 10.81470 | 106.65725 | 42 ft | 5 kts | 68° |
| 2026-04-17 06:35 | 10.81486 | 106.65765 | 42 ft | 6 kts | 65° |
| 2026-04-17 06:35 | 10.81525 | 106.65791 | 42 ft | 7 kts | 10° |
| 2026-04-17 06:35 | 10.81578 | 106.65795 | 42 ft | 8 kts | 4° |
| 2026-04-17 06:36 | 10.81637 | 106.65801 | 42 ft | 8 kts | 5° |
| 2026-04-17 06:36 | 10.81697 | 106.65790 | 42 ft | 9 kts | 338° |
| 2026-04-17 06:36 | 10.81756 | 106.65798 | 42 ft | 9 kts | 52° |
| 2026-04-17 06:36 | 10.81784 | 106.65866 | 42 ft | 10 kts | 69° |
| 2026-04-17 06:37 | 10.81812 | 106.65939 | 42 ft | 11 kts | 68° |
| 2026-04-17 06:37 | 10.81842 | 106.66016 | 42 ft | 11 kts | 68° |
| 2026-04-17 06:37 | 10.81872 | 106.66097 | 42 ft | 12 kts | 70° |
| 2026-04-17 06:37 | 10.81902 | 106.66180 | 42 ft | 12 kts | 69° |
| 2026-04-17 06:38 | 10.81935 | 106.66266 | 42 ft | 13 kts | 69° |
| 2026-04-17 06:38 | 10.81969 | 106.66354 | 42 ft | 13 kts | 69° |
| 2026-04-17 06:38 | 10.82003 | 106.66445 | 42 ft | 13 kts | 69° |
| 2026-04-17 06:38 | 10.82038 | 106.66538 | 42 ft | 13 kts | 69° |
| 2026-04-17 06:39 | 10.82092 | 106.66575 | 42 ft | 11 kts | 326° |
| 2026-04-17 06:39 | 10.82125 | 106.66501 | 42 ft | 12 kts | 282° |
| 2026-04-17 06:39 | 10.82143 | 106.66447 | 42 ft | 5 kts | 327° |
| 2026-04-17 06:39 | 10.82168 | 106.66421 | 42 ft | 5 kts | 276° |
| 2026-04-17 06:40 | 10.82163 | 106.66396 | 42 ft | 0 kts | 248° |
| 2026-04-17 06:40 | 10.82162 | 106.66393 | 42 ft | 1 kts | 248° |
| 2026-04-17 06:40 | 10.82159 | 106.66385 | 42 ft | 8 kts | 248° |
| 2026-04-17 06:40 | 10.82046 | 106.66083 | 42 ft | 82 kts | 247° |
| 2026-04-17 06:41 | 10.81759 | 106.65329 | 42 ft | 142 kts | 250° |
| 2026-04-17 06:41 | 10.81352 | 106.64256 | 232 ft | 173 kts | 251° |
| 2026-04-17 06:41 | 10.80905 | 106.63100 | 763 ft | 178 kts | 250° |
| 2026-04-17 06:41 | 10.80459 | 106.61948 | 1430 ft | 175 kts | 251° |
| 2026-04-17 06:42 | 10.80027 | 106.60803 | 1901 ft | 181 kts | 250° |
| 2026-04-17 06:42 | 10.79554 | 106.59549 | 2234 ft | 197 kts | 249° |
| 2026-04-17 06:42 | 10.79045 | 106.58207 | 2624 ft | 211 kts | 249° |
| 2026-04-17 06:42 | 10.78424 | 106.56789 | 2879 ft | 233 kts | 233° |
| 2026-04-17 06:43 | 10.77101 | 106.55777 | 3299 ft | 245 kts | 194° |
| 2026-04-17 06:43 | 10.75441 | 106.55772 | 4072 ft | 243 kts | 160° |
| 2026-04-17 06:43 | 10.73980 | 106.56574 | 4876 ft | 242 kts | 147° |
| 2026-04-17 06:43 | 10.72572 | 106.57509 | 5613 ft | 246 kts | 146° |
| 2026-04-17 06:44 | 10.71172 | 106.58495 | 6355 ft | 249 kts | 136° |
| 2026-04-17 06:44 | 10.70291 | 106.59956 | 7051 ft | 252 kts | 101° |
| 2026-04-17 06:44 | 10.70268 | 106.61737 | 7855 ft | 252 kts | 85° |
| 2026-04-17 06:44 | 10.70431 | 106.63509 | 8600 ft | 256 kts | 84° |
| 2026-04-17 06:45 | 10.70562 | 106.65304 | 9347 ft | 259 kts | 86° |
| 2026-04-17 06:45 | 10.70654 | 106.67133 | 10098 ft | 262 kts | 86° |
| 2026-04-17 06:45 | 10.70705 | 106.68964 | 10831 ft | 264 kts | 88° |
| 2026-04-17 06:45 | 10.70738 | 106.70833 | 11570 ft | 266 kts | 88° |
| 2026-04-17 06:46 | 10.70764 | 106.72670 | 12477 ft | 260 kts | 88° |
| 2026-04-17 06:46 | 10.70790 | 106.74486 | 13255 ft | 259 kts | 88° |
| 2026-04-17 06:46 | 10.70817 | 106.76327 | 13937 ft | 262 kts | 89° |
| 2026-04-17 06:46 | 10.70843 | 106.78183 | 14603 ft | 265 kts | 89° |
| 2026-04-17 06:47 | 10.70868 | 106.80051 | 15272 ft | 268 kts | 89° |
| 2026-04-17 06:47 | 10.70893 | 106.81950 | 15936 ft | 271 kts | 89° |
| 2026-04-17 06:47 | 10.70918 | 106.83860 | 16583 ft | 274 kts | 90° |
| 2026-04-17 06:47 | 10.70944 | 106.85795 | 17232 ft | 276 kts | 90° |
| 2026-04-17 06:48 | 10.70970 | 106.87751 | 17868 ft | 279 kts | 90° |
| 2026-04-17 06:48 | 10.70995 | 106.89708 | 18466 ft | 283 kts | 90° |
| 2026-04-17 06:48 | 10.71019 | 106.91768 | 18812 ft | 297 kts | 90° |
| 2026-04-17 06:48 | 10.71044 | 106.93923 | 18873 ft | 321 kts | 90° |
| 2026-04-17 06:49 | 10.71074 | 106.96287 | 18886 ft | 345 kts | 90° |
| 2026-04-17 06:49 | 10.71106 | 106.98801 | 18890 ft | 367 kts | 90° |
| 2026-04-17 06:49 | 10.71140 | 107.01489 | 18890 ft | 388 kts | 90° |
| 2026-04-17 06:49 | 10.71177 | 107.04297 | 18890 ft | 407 kts | 90° |
| 2026-04-17 06:50 | 10.71214 | 107.07196 | 18885 ft | 414 kts | 90° |
| 2026-04-17 06:50 | 10.71252 | 107.10132 | 18885 ft | 416 kts | 90° |
| 2026-04-17 06:50 | 10.71290 | 107.13043 | 18885 ft | 416 kts | 90° |
| 2026-04-17 06:50 | 10.71328 | 107.15986 | 18884 ft | 415 kts | 90° |
| 2026-04-17 06:51 | 10.71364 | 107.18940 | 18884 ft | 416 kts | 90° |
| 2026-04-17 06:51 | 10.71400 | 107.21856 | 18884 ft | 416 kts | 90° |
| 2026-04-17 06:51 | 10.71436 | 107.24793 | 18884 ft | 416 kts | 90° |
| 2026-04-17 06:51 | 10.71475 | 107.27711 | 18883 ft | 416 kts | 89° |
| 2026-04-17 06:52 | 10.71903 | 107.30647 | 18876 ft | 418 kts | 74° |
| 2026-04-17 06:52 | 10.73076 | 107.33318 | 18880 ft | 420 kts | 58° |
| 2026-04-17 06:52 | 10.74945 | 107.35605 | 18887 ft | 422 kts | 45° |
| 2026-04-17 06:52 | 10.77099 | 107.37605 | 18888 ft | 422 kts | 42° |
| 2026-04-17 06:53 | 10.79294 | 107.39566 | 18886 ft | 422 kts | 42° |
| 2026-04-17 06:53 | 10.81509 | 107.41544 | 18885 ft | 422 kts | 42° |
| 2026-04-17 06:53 | 10.83703 | 107.43517 | 18885 ft | 422 kts | 42° |
| 2026-04-17 06:53 | 10.85902 | 107.45509 | 18884 ft | 422 kts | 42° |
| 2026-04-17 06:54 | 10.88072 | 107.47483 | 18884 ft | 422 kts | 43° |
| 2026-04-17 06:54 | 10.90257 | 107.49476 | 18884 ft | 422 kts | 43° |
| 2026-04-17 06:54 | 10.92445 | 107.51475 | 18884 ft | 422 kts | 43° |
| 2026-04-17 06:54 | 10.94625 | 107.53469 | 18884 ft | 422 kts | 43° |
| 2026-04-17 06:55 | 10.96785 | 107.55449 | 18882 ft | 421 kts | 43° |
| 2026-04-17 06:55 | 10.98969 | 107.57452 | 18876 ft | 421 kts | 43° |
| 2026-04-17 06:55 | 11.01137 | 107.59438 | 18871 ft | 421 kts | 43° |
| 2026-04-17 06:55 | 11.03310 | 107.61430 | 18668 ft | 421 kts | 43° |
| 2026-04-17 06:56 | 11.05462 | 107.63401 | 18420 ft | 419 kts | 43° |
| 2026-04-17 06:56 | 11.07570 | 107.65336 | 18174 ft | 417 kts | 43° |
| 2026-04-17 06:56 | 11.09757 | 107.67355 | 17875 ft | 416 kts | 43° |
| 2026-04-17 06:56 | 11.11877 | 107.69305 | 17534 ft | 413 kts | 43° |
| 2026-04-17 06:57 | 11.13994 | 107.71243 | 17103 ft | 410 kts | 43° |
| 2026-04-17 06:57 | 11.16118 | 107.73189 | 16613 ft | 407 kts | 43° |
| 2026-04-17 06:57 | 11.18205 | 107.75101 | 16104 ft | 403 kts | 43° |
| 2026-04-17 06:57 | 11.20264 | 107.76988 | 15600 ft | 399 kts | 43° |
| 2026-04-17 06:58 | 11.22314 | 107.78869 | 15110 ft | 395 kts | 43° |
| 2026-04-17 06:58 | 11.24346 | 107.80734 | 14604 ft | 392 kts | 43° |
| 2026-04-17 06:58 | 11.26341 | 107.82566 | 14093 ft | 388 kts | 42° |
| 2026-04-17 06:58 | 11.28326 | 107.84390 | 13587 ft | 384 kts | 42° |
| 2026-04-17 06:59 | 11.30313 | 107.86215 | 13073 ft | 381 kts | 42° |
| 2026-04-17 06:59 | 11.32267 | 107.88010 | 12569 ft | 377 kts | 42° |
| 2026-04-17 06:59 | 11.34199 | 107.89786 | 12078 ft | 373 kts | 42° |
| 2026-04-17 06:59 | 11.36105 | 107.91537 | 11591 ft | 370 kts | 42° |
| 2026-04-17 07:00 | 11.37988 | 107.93269 | 11089 ft | 366 kts | 42° |
| 2026-04-17 07:00 | 11.39877 | 107.95008 | 10626 ft | 361 kts | 42° |
| 2026-04-17 07:00 | 11.41703 | 107.96688 | 10485 ft | 345 kts | 42° |
| 2026-04-17 07:00 | 11.43443 | 107.98288 | 10347 ft | 331 kts | 42° |
| 2026-04-17 07:01 | 11.45114 | 107.99825 | 10228 ft | 317 kts | 42° |
| 2026-04-17 07:01 | 11.46718 | 108.01302 | 10125 ft | 303 kts | 41° |
| 2026-04-17 07:01 | 11.48239 | 108.02702 | 10040 ft | 290 kts | 41° |
| 2026-04-17 07:01 | 11.49700 | 108.04048 | 9920 ft | 279 kts | 41° |
| 2026-04-17 07:02 | 11.51128 | 108.05363 | 9560 ft | 279 kts | 41° |
| 2026-04-17 07:02 | 11.52566 | 108.06689 | 9227 ft | 277 kts | 41° |
| 2026-04-17 07:02 | 11.53977 | 108.07989 | 8908 ft | 274 kts | 41° |
| 2026-04-17 07:02 | 11.55382 | 108.09283 | 8592 ft | 272 kts | 41° |
| 2026-04-17 07:03 | 11.56790 | 108.10579 | 8273 ft | 270 kts | 41° |
| 2026-04-17 07:03 | 11.58166 | 108.11847 | 8012 ft | 266 kts | 41° |
| 2026-04-17 07:03 | 11.59522 | 108.13078 | 7918 ft | 254 kts | 38° |
| 2026-04-17 07:03 | 11.60954 | 108.14115 | 7652 ft | 251 kts | 30° |
| 2026-04-17 07:04 | 11.62479 | 108.14933 | 7398 ft | 247 kts | 25° |
| 2026-04-17 07:04 | 11.64012 | 108.15677 | 7144 ft | 244 kts | 25° |
| 2026-04-17 07:04 | 11.65583 | 108.16310 | 6850 ft | 243 kts | 13° |
| 2026-04-17 07:04 | 11.67248 | 108.16513 | 6557 ft | 245 kts | 359° |
| 2026-04-17 07:05 | 11.68969 | 108.16442 | 6278 ft | 252 kts | 356° |
| 2026-04-17 07:05 | 11.70720 | 108.16325 | 6021 ft | 249 kts | 356° |
| 2026-04-17 07:05 | 11.72405 | 108.16287 | 5961 ft | 235 kts | 10° |
| 2026-04-17 07:05 | 11.73785 | 108.17005 | 5922 ft | 220 kts | 50° |
| 2026-04-17 07:06 | 11.74383 | 108.18373 | 6077 ft | 206 kts | 78° |
| 2026-04-17 07:06 | 11.74513 | 108.19770 | 5996 ft | 195 kts | 86° |
| 2026-04-17 07:06 | 11.74540 | 108.21140 | 5735 ft | 189 kts | 88° |
| 2026-04-17 07:06 | 11.74572 | 108.22450 | 5503 ft | 181 kts | 86° |
| 2026-04-17 07:07 | 11.74627 | 108.23704 | 5265 ft | 173 kts | 86° |
| 2026-04-17 07:07 | 11.74691 | 108.24894 | 5019 ft | 163 kts | 86° |
| 2026-04-17 07:07 | 11.74754 | 108.26002 | 4792 ft | 153 kts | 86° |
| 2026-04-17 07:07 | 11.74814 | 108.27059 | 4593 ft | 147 kts | 86° |
| 2026-04-17 07:08 | 11.74872 | 108.28108 | 4414 ft | 147 kts | 86° |
| 2026-04-17 07:08 | 11.74929 | 108.29143 | 4229 ft | 147 kts | 86° |
| 2026-04-17 07:08 | 11.74985 | 108.30193 | 4034 ft | 146 kts | 86° |
| 2026-04-17 07:08 | 11.75040 | 108.31223 | 3839 ft | 146 kts | 86° |
| 2026-04-17 07:09 | 11.75093 | 108.32243 | 3643 ft | 145 kts | 87° |
| 2026-04-17 07:09 | 11.75146 | 108.33280 | 3438 ft | 145 kts | 86° |
| 2026-04-17 07:09 | 11.75198 | 108.34302 | 3262 ft | 145 kts | 87° |
| 2026-04-17 07:09 | 11.75254 | 108.35311 | 3160 ft | 132 kts | 87° |
| 2026-04-17 07:10 | 11.75299 | 108.36069 | 3160 ft | 79 kts | 85° |
| 2026-04-17 07:10 | 11.75316 | 108.36498 | 3160 ft | 39 kts | 87° |
| 2026-04-17 07:10 | 11.75329 | 108.36693 | 3159 ft | 18 kts | 86° |
| 2026-04-17 07:10 | 11.75291 | 108.36805 | 3159 ft | 17 kts | 160° |
| 2026-04-17 07:11 | 11.75172 | 108.36812 | 3159 ft | 16 kts | 179° |
| 2026-04-17 07:11 | 11.75084 | 108.36817 | 3159 ft | 8 kts | 154° |
| 2026-04-17 07:11 | 11.75023 | 108.36835 | 3159 ft | 9 kts | 178° |
| 2026-04-17 07:11 | 11.74992 | 108.36836 | 3159 ft | 2 kts | 178° |
| 2026-04-17 07:12 | 11.74986 | 108.36837 | 3159 ft | 0 kts | 178° |